Time;durP1;ratioP1;P1;durP2;ratioP2;P2;SDS_P1;SDS_P2;PMS_P1;PMS_P2;Temp;Humidity;BMP_temperature;BMP_pressure;BME280_temperature;BME280_humidity;BME280_pressure;Samples;Min_cycle;Max_cycle;Signal;HPM_P1;HPM_P2
2022/04/11 00:01:23;;;;;;;15.60;8.60;;;;;;;0.85;74.69;100479.88;88189;1276;82204;-77
2022/04/11 00:03:33;;;;;;;15.20;9.30;;;;;;;0.81;74.66;100480.73;88189;1276;96909;-78
2022/04/11 00:05:42;;;;;;;16.90;10.00;;;;;;;0.77;74.68;100484.21;88168;1276;89196;-72
2022/04/11 00:07:50;;;;;;;15.40;9.70;;;;;;;0.74;74.66;100487.52;88153;1276;94829;-72
2022/04/11 00:10:00;;;;;;;16.40;10.20;;;;;;;0.70;74.89;100484.27;88025;1279;83314;-72
2022/04/11 00:12:11;;;;;;;18.60;9.90;;;;;;;0.70;74.93;100489.63;88197;1276;81518;-76
2022/04/11 00:14:21;;;;;;;15.50;9.00;;;;;;;0.71;74.97;100489.02;88174;1276;99198;-76
2022/04/11 00:16:30;;;;;;;13.60;8.40;;;;;;;0.71;75.02;100491.46;88147;1276;86588;-73
2022/04/11 00:18:40;;;;;;;15.40;9.10;;;;;;;0.70;75.09;100495.16;88164;1276;95096;-72
2022/04/11 00:20:50;;;;;;;14.60;9.20;;;;;;;0.74;75.19;100498.02;88125;1276;81718;-72
2022/04/11 00:23:03;;;;;;;14.30;9.50;;;;;;;0.79;75.46;100500.21;88034;1279;82898;-72
2022/04/11 00:25:13;;;;;;;16.10;9.50;;;;;;;0.90;75.60;100503.58;88165;1276;97682;-71
2022/04/11 00:27:22;;;;;;;16.50;9.40;;;;;;;1.00;75.49;100501.85;88178;1276;88069;-73
2022/04/11 00:29:32;;;;;;;17.20;9.20;;;;;;;1.12;75.56;100500.26;88160;1276;93128;-72
2022/04/11 00:31:41;;;;;;;14.50;9.00;;;;;;;1.28;75.80;100507.88;88140;1276;78578;-76
2022/04/11 00:33:49;;;;;;;15.60;9.80;;;;;;;1.36;75.85;100501.12;88170;1276;81661;-75
2022/04/11 00:35:58;;;;;;;14.10;8.70;;;;;;;1.43;75.70;100503.20;88135;1276;97296;-77
2022/04/11 00:38:07;;;;;;;13.80;9.00;;;;;;;1.48;75.71;100504.91;88164;1276;87790;-76
2022/04/11 00:40:17;;;;;;;17.60;9.70;;;;;;;1.51;75.64;100501.84;88173;1276;94545;-77
2022/04/11 00:42:30;;;;;;;15.20;9.10;;;;;;;1.51;75.62;100503.02;88178;1276;77663;-73
2022/04/11 00:44:39;;;;;;;16.30;9.80;;;;;;;1.50;75.69;100507.55;88175;1276;82538;-72
2022/04/11 00:46:48;;;;;;;15.70;9.30;;;;;;;1.50;75.59;100507.61;88148;1278;96941;-73
2022/04/11 00:48:57;;;;;;;16.20;10.00;;;;;;;1.48;75.70;100506.31;88151;1276;89261;-71
2022/04/11 00:51:11;;;;;;;18.00;9.40;;;;;;;1.45;75.67;100509.55;88138;1276;93149;-73
2022/04/11 00:53:21;;;;;;;14.50;8.90;;;;;;;1.41;75.59;100510.52;88155;1276;79006;-71
2022/04/11 00:55:30;;;;;;;14.10;8.50;;;;;;;1.37;75.57;100508.34;88114;1276;82404;-75
2022/04/11 00:57:40;;;;;;;15.90;9.70;;;;;;;1.34;75.63;100511.97;88045;1279;98146;-77
2022/04/11 00:59:49;;;;;;;16.10;8.30;;;;;;;1.28;75.53;100513.88;88168;1276;89013;-71
2022/04/11 01:01:58;;;;;;;16.50;9.60;;;;;;;1.24;75.59;100512.84;88196;1276;94978;-72
2022/04/11 01:04:22;;;;;;;17.30;10.20;;;;;;;1.20;75.52;100515.92;88041;1279;80689;-72
2022/04/11 01:06:34;;;;;;;16.70;10.30;;;;;;;1.14;75.72;100514.30;88188;1276;81678;-72
2022/04/11 01:08:44;;;;;;;15.50;9.90;;;;;;;1.08;75.70;100518.05;88170;1276;99506;-72
2022/04/11 01:10:54;;;;;;;17.30;10.50;;;;;;;1.03;75.62;100518.81;88163;1276;86649;-76
2022/04/11 01:13:06;;;;;;;15.40;10.60;;;;;;;0.96;75.55;100523.26;88152;1276;94455;-77
2022/04/11 01:15:15;;;;;;;19.40;11.60;;;;;;;0.91;75.86;100525.14;88115;1277;80590;-76
2022/04/11 01:17:34;;;;;;;19.40;11.20;;;;;;;0.89;76.04;100524.39;88182;1276;80326;-76
2022/04/11 01:19:52;;;;;;;23.20;11.00;;;;;;;0.86;75.96;100527.31;88172;1276;98855;-76
2022/04/11 01:22:06;;;;;;;16.20;10.40;;;;;;;0.84;75.97;100525.51;88230;1276;88592;-72
2022/04/11 01:24:17;;;;;;;21.60;11.40;;;;;;;0.86;76.73;100522.36;88141;1276;94004;-72
2022/04/11 01:26:31;;;;;;;15.20;10.20;;;;;;;0.88;76.57;100529.46;88136;1276;81798;-76
2022/04/11 01:28:41;;;;;;;19.70;10.70;;;;;;;0.87;76.60;100523.86;88172;1276;82554;-72
2022/04/11 01:30:51;;;;;;;15.20;9.30;;;;;;;0.90;76.56;100532.98;88136;1276;98820;-72
2022/04/11 01:33:00;;;;;;;18.10;10.00;;;;;;;0.91;76.62;100534.17;88164;1276;86518;-72
2022/04/11 01:35:20;;;;;;;16.50;10.80;;;;;;;0.88;76.72;100536.67;88138;1276;94232;-73
2022/04/11 01:37:30;;;;;;;20.00;11.10;;;;;;;0.92;76.78;100536.73;88152;1276;80359;-76
2022/04/11 01:39:40;;;;;;;15.60;11.00;;;;;;;0.92;76.67;100539.40;88164;1276;82187;-77
2022/04/11 01:41:50;;;;;;;18.90;11.30;;;;;;;0.89;76.62;100537.88;88196;1276;98885;-77
2022/04/11 01:44:02;;;;;;;18.90;10.70;;;;;;;0.85;76.63;100542.60;88142;1277;88643;-76
2022/04/11 01:46:11;;;;;;;19.90;11.20;;;;;;;0.81;76.69;100543.11;88201;1276;96284;-75
2022/04/11 01:48:20;;;;;;;21.40;13.00;;;;;;;0.83;76.74;100540.98;88161;1276;76986;-77
2022/04/11 01:50:29;;;;;;;22.30;13.00;;;;;;;0.79;76.82;100545.44;88174;1277;83161;-75
2022/04/11 01:52:39;;;;;;;19.60;13.40;;;;;;;0.78;76.97;100547.48;88165;1276;100010;-77
2022/04/11 01:54:52;;;;;;;18.90;11.40;;;;;;;0.73;76.96;100545.55;88144;1276;88923;-71
2022/04/11 01:57:01;;;;;;;18.30;11.60;;;;;;;0.70;77.17;100548.48;88196;1276;93613;-72
2022/04/11 01:59:14;;;;;;;17.60;11.10;;;;;;;0.67;76.91;100548.02;88144;1276;81292;-77
2022/04/11 02:01:27;;;;;;;20.30;12.60;;;;;;;0.68;77.07;100550.08;88175;1276;79996;-72
2022/04/11 02:03:37;;;;;;;20.50;11.90;;;;;;;0.68;77.28;100551.27;88140;1276;98615;-73
2022/04/11 02:05:49;;;;;;;19.20;11.90;;;;;;;0.72;77.48;100552.53;88041;1279;89216;-73
2022/04/11 02:07:58;;;;;;;21.20;12.30;;;;;;;0.72;77.35;100553.41;88122;1276;93709;-76
2022/04/11 02:10:09;;;;;;;18.10;11.40;;;;;;;0.76;77.62;100555.07;88144;1276;78959;-78
2022/04/11 02:12:18;;;;;;;17.20;10.90;;;;;;;0.81;77.51;100557.13;88222;1276;80733;-74
2022/04/11 02:14:30;;;;;;;20.60;11.60;;;;;;;0.88;77.81;100559.59;88115;1276;98404;-73
2022/04/11 02:16:39;;;;;;;20.30;11.50;;;;;;;0.90;77.91;100560.98;88168;1276;87946;-73
2022/04/11 02:18:49;;;;;;;18.40;11.30;;;;;;;0.93;77.72;100563.09;88156;1276;94195;-72
2022/04/11 02:20:58;;;;;;;19.70;11.80;;;;;;;0.92;77.74;100562.45;88128;1276;77417;-72
2022/04/11 02:23:07;;;;;;;19.60;11.60;;;;;;;0.90;77.79;100561.71;88123;1276;81260;-72
2022/04/11 02:25:16;;;;;;;21.00;12.50;;;;;;;0.92;77.78;100564.06;88163;1276;99193;-72
2022/04/11 02:27:29;;;;;;;17.10;10.50;;;;;;;0.92;77.85;100565.45;88124;1276;87441;-71
2022/04/11 02:29:41;;;;;;;21.50;11.80;;;;;;;0.93;78.03;100566.59;88105;1276;94528;-71
2022/04/11 02:31:49;;;;;;;16.70;11.10;;;;;;;0.94;78.01;100566.52;88184;1277;80559;-72
2022/04/11 02:33:58;;;;;;;21.00;11.30;;;;;;;0.95;77.81;100564.65;88125;1276;82249;-72
2022/04/11 02:36:08;;;;;;;20.70;12.20;;;;;;;0.98;78.07;100564.09;88185;1276;99614;-72
2022/04/11 02:38:17;;;;;;;20.60;11.70;;;;;;;0.99;77.86;100562.25;88129;1276;87331;-72
2022/04/11 02:40:29;;;;;;;18.30;11.50;;;;;;;0.99;77.78;100564.16;88114;1276;94721;-75
2022/04/11 02:42:43;;;;;;;18.70;10.50;;;;;;;1.01;77.88;100567.38;88003;1279;80325;-71
2022/04/11 02:44:53;;;;;;;17.40;11.60;;;;;;;1.00;77.98;100569.02;88188;1277;83330;-73
2022/04/11 02:47:02;;;;;;;17.20;11.30;;;;;;;1.03;77.75;100566.35;88165;1276;98131;-73
2022/04/11 02:49:13;;;;;;;20.40;12.40;;;;;;;1.00;77.86;100567.98;88127;1276;87664;-74
2022/04/11 02:51:25;;;;;;;19.90;12.20;;;;;;;0.93;77.75;100569.25;88125;1277;96767;-77
2022/04/11 02:53:34;;;;;;;21.80;12.60;;;;;;;0.86;77.73;100564.52;88149;1278;78496;-78
2022/04/11 02:55:43;;;;;;;22.00;12.30;;;;;;;0.82;77.55;100571.46;88123;1277;82904;-76
2022/04/11 02:57:52;;;;;;;19.50;12.30;;;;;;;0.74;77.56;100569.20;88177;1277;99649;-78
2022/04/11 03:00:01;;;;;;;20.50;11.90;;;;;;;0.67;77.68;100573.04;88132;1276;88862;-76
2022/04/11 03:02:10;;;;;;;18.40;11.90;;;;;;;0.60;77.76;100577.95;88167;1278;95476;-72
2022/04/11 03:04:20;;;;;;;20.50;11.20;;;;;;;0.57;77.69;100574.65;88131;1278;79899;-74
2022/04/11 03:06:29;;;;;;;17.20;11.10;;;;;;;0.54;77.67;100570.29;88163;1277;81136;-72
2022/04/11 03:08:41;;;;;;;20.10;12.10;;;;;;;0.52;77.76;100570.45;88119;1278;98866;-72
2022/04/11 03:10:49;;;;;;;20.00;12.40;;;;;;;0.51;77.66;100574.97;88163;1277;87201;-77
2022/04/11 03:12:59;;;;;;;17.70;11.40;;;;;;;0.48;77.87;100575.91;88027;1277;95563;-79
2022/04/11 03:15:11;;;;;;;19.50;12.30;;;;;;;0.46;77.89;100581.15;88158;1277;77990;-75
2022/04/11 03:17:21;;;;;;;21.60;11.80;;;;;;;0.41;77.81;100582.54;88206;1277;80367;-74
2022/04/11 03:19:30;;;;;;;20.60;12.40;;;;;;;0.33;77.95;100589.12;88108;1277;99786;-73
2022/04/11 03:21:38;;;;;;;21.10;12.70;;;;;;;0.28;77.94;100589.55;88164;1277;85927;-77
2022/04/11 03:23:51;;;;;;;18.70;12.10;;;;;;;0.24;77.95;100591.67;88154;1277;94573;-78
2022/04/11 03:26:02;;;;;;;19.10;11.60;;;;;;;0.18;78.07;100591.59;88091;1276;80788;-74
2022/04/11 03:28:11;;;;;;;17.10;11.50;;;;;;;0.11;78.26;100591.91;88177;1277;80717;-74
2022/04/11 03:30:21;;;;;;;22.00;13.20;;;;;;;0.12;78.22;100594.70;88127;1277;97434;-74
2022/04/11 03:32:32;;;;;;;19.90;12.40;;;;;;;0.12;78.35;100592.23;88164;1276;88881;-72
2022/04/11 03:34:44;;;;;;;20.60;11.90;;;;;;;0.13;78.33;100595.35;88161;1277;94446;-73
2022/04/11 03:36:53;;;;;;;16.70;12.20;;;;;;;0.12;78.49;100594.88;88114;1278;80803;-74
2022/04/11 03:39:01;;;;;;;18.50;13.20;;;;;;;0.12;78.53;100596.67;88151;1278;82211;-74
2022/04/11 03:41:13;;;;;;;18.80;13.40;;;;;;;0.14;78.63;100592.95;88118;1277;98579;-73
2022/04/11 03:43:22;;;;;;;20.10;13.20;;;;;;;0.16;78.63;100591.54;88159;1277;87676;-73
2022/04/11 03:45:35;;;;;;;18.00;11.50;;;;;;;0.20;78.78;100594.25;88090;1277;95691;-71
2022/04/11 03:47:44;;;;;;;23.30;12.30;;;;;;;0.27;78.68;100593.73;88140;1277;81413;-72
2022/04/11 03:49:52;;;;;;;19.60;12.30;;;;;;;0.34;78.77;100597.41;88113;1277;82628;-72
2022/04/11 03:52:02;;;;;;;19.30;13.20;;;;;;;0.38;78.78;100599.06;88138;1277;99021;-74
2022/04/11 03:54:11;;;;;;;20.00;13.40;;;;;;;0.43;78.94;100600.23;88113;1278;89294;-73
2022/04/11 03:56:21;;;;;;;19.00;12.50;;;;;;;0.45;78.79;100600.73;88091;1277;92747;-74
2022/04/11 03:58:30;;;;;;;20.10;12.90;;;;;;;0.42;78.71;100599.98;88150;1277;78411;-73
2022/04/11 04:00:38;;;;;;;19.10;13.80;;;;;;;0.37;78.91;100601.06;88130;1278;81897;-72
2022/04/11 04:02:48;;;;;;;21.80;14.10;;;;;;;0.35;78.74;100602.84;88121;1278;99185;-74
2022/04/11 04:04:56;;;;;;;20.00;13.70;;;;;;;0.30;78.80;100601.99;88134;1277;88999;-74
2022/04/11 04:07:06;;;;;;;24.10;13.70;;;;;;;0.25;78.52;100610.66;88143;1278;95677;-74
2022/04/11 04:09:14;;;;;;;23.00;13.90;;;;;;;0.23;78.71;100612.95;88101;1278;79604;-72
2022/04/11 04:11:23;;;;;;;20.90;13.10;;;;;;;0.24;78.87;100618.73;88160;1277;82444;-74
2022/04/11 04:13:34;;;;;;;19.90;13.10;;;;;;;0.23;78.87;100620.77;88126;1277;99103;-71
2022/04/11 04:15:44;;;;;;;21.40;13.70;;;;;;;0.26;78.93;100623.87;88169;1276;85329;-71
2022/04/11 04:17:55;;;;;;;21.90;13.60;;;;;;;0.29;79.19;100621.34;88087;1278;94556;-71
2022/04/11 04:20:06;;;;;;;20.40;13.20;;;;;;;0.32;79.04;100620.77;88157;1277;79144;-72
2022/04/11 04:22:17;;;;;;;20.50;13.70;;;;;;;0.37;79.07;100616.25;88167;1278;80280;-71
2022/04/11 04:24:27;;;;;;;21.70;13.10;;;;;;;0.48;79.27;100620.75;88118;1277;97861;-72
2022/04/11 04:26:38;;;;;;;18.00;12.60;;;;;;;0.57;79.15;100623.75;88138;1277;88335;-73
2022/04/11 04:28:47;;;;;;;21.00;13.60;;;;;;;0.70;79.30;100629.31;88109;1277;94045;-73
2022/04/11 04:30:59;;;;;;;23.30;13.60;;;;;;;0.88;79.29;100629.24;88138;1276;80860;-74
2022/04/11 04:33:12;;;;;;;17.60;12.70;;;;;;;1.24;79.37;100626.71;88150;1277;79636;-74
2022/04/11 04:35:25;;;;;;;21.40;13.70;;;;;;;1.53;79.10;100631.00;88119;1277;96164;-71
2022/04/11 04:37:37;;;;;;;20.70;13.80;;;;;;;2.23;79.08;100629.73;88151;1277;87736;-73
2022/04/11 04:39:45;;;;;;;19.10;13.00;;;;;;;3.08;78.61;100628.55;88093;1277;96173;-74
2022/04/11 04:41:57;;;;;;;22.50;14.60;;;;;;;4.08;78.10;100626.89;88167;1277;79145;-74
2022/04/11 04:44:07;;;;;;;20.00;13.40;;;;;;;4.96;77.51;100626.48;88164;1277;81095;-70
2022/04/11 04:46:16;;;;;;;20.90;12.90;;;;;;;5.72;76.95;100626.61;88164;1277;98743;-74
2022/04/11 04:48:28;;;;;;;19.70;13.90;;;;;;;6.31;76.15;100625.98;88118;1277;88165;-73
2022/04/11 04:50:37;;;;;;;19.90;13.40;;;;;;;6.68;75.20;100623.39;88027;1276;94528;-74
2022/04/11 04:52:46;;;;;;;18.10;12.80;;;;;;;6.25;73.73;100629.77;88039;1277;78569;-76
2022/04/11 04:54:55;;;;;;;18.60;13.20;;;;;;;5.79;73.43;100630.36;87334;1277;952332;-74
2022/04/11 04:57:09;;;;;;;18.70;12.30;;;;;;;5.36;73.73;100628.45;88129;1275;97586;-70
2022/04/11 04:59:18;;;;;;;19.00;13.20;;;;;;;5.21;73.63;100627.71;87956;1277;89021;-70
2022/04/11 05:01:30;;;;;;;16.90;12.40;;;;;;;5.23;72.81;100627.56;88115;1277;95076;-74
2022/04/11 05:03:40;;;;;;;18.20;12.70;;;;;;;5.22;72.55;100632.88;88148;1277;76980;-74
2022/04/11 05:05:52;;;;;;;17.80;13.00;;;;;;;5.52;72.65;100633.70;88161;1277;82342;-75
2022/04/11 05:08:00;;;;;;;19.60;12.80;;;;;;;5.44;72.39;100634.77;88151;1277;98259;-70
2022/04/11 05:10:14;;;;;;;18.90;13.60;;;;;;;5.12;72.30;100637.40;88177;1277;88310;-71
2022/04/11 05:12:26;;;;;;;22.40;12.20;;;;;;;4.71;72.37;100637.80;88132;1276;94553;-70
2022/04/11 05:14:37;;;;;;;19.90;13.50;;;;;;;4.36;72.53;100639.44;88164;1276;76969;-71
2022/04/11 05:16:47;;;;;;;17.60;13.20;;;;;;;4.19;72.54;100643.52;88204;1276;81545;-70
2022/04/11 05:18:56;;;;;;;20.10;13.60;;;;;;;4.08;72.71;100646.83;88151;1276;97906;-69
2022/04/11 05:21:05;;;;;;;19.00;13.30;;;;;;;4.01;73.06;100650.49;88180;1277;89231;-71
2022/04/11 05:23:14;;;;;;;19.10;14.10;;;;;;;4.15;73.38;100652.40;88139;1276;94553;-72
2022/04/11 05:25:23;;;;;;;17.00;12.50;;;;;;;5.56;75.04;100651.21;88153;1276;80396;-72
2022/04/11 05:27:32;;;;;;;18.20;12.30;;;;;;;6.70;73.45;100645.73;88146;1276;82990;-74
2022/04/11 05:29:44;;;;;;;15.40;12.10;;;;;;;6.59;72.39;100645.41;88150;1276;100736;-76
2022/04/11 05:31:52;;;;;;;17.00;13.40;;;;;;;6.26;72.13;100647.92;88170;1276;89535;-70
2022/04/11 05:34:05;;;;;;;18.40;12.80;;;;;;;5.95;71.94;100643.09;88166;1276;94598;-72
2022/04/11 05:36:15;;;;;;;19.00;11.70;;;;;;;5.72;71.83;100649.80;88142;1277;77006;-73
2022/04/11 05:38:24;;;;;;;17.50;11.80;;;;;;;5.57;71.72;100651.89;88166;1276;82192;-70
2022/04/11 05:40:34;;;;;;;17.60;11.90;;;;;;;5.47;71.76;100655.98;88213;1277;99289;-74
2022/04/11 05:42:42;;;;;;;15.80;11.60;;;;;;;5.36;71.80;100656.48;88159;1277;87788;-75
2022/04/11 05:44:54;;;;;;;20.20;12.60;;;;;;;5.22;71.65;100662.10;88157;1276;95415;-74
2022/04/11 05:47:03;;;;;;;17.50;12.20;;;;;;;5.10;71.78;100664.39;88173;1276;77010;-76
2022/04/11 05:49:12;;;;;;;18.50;12.90;;;;;;;5.22;71.75;100664.08;88184;1277;82472;-74
2022/04/11 05:51:21;;;;;;;25.70;15.30;;;;;;;5.49;72.02;100660.20;88158;1277;99028;-73
2022/04/11 05:53:30;;;;;;;22.10;15.40;;;;;;;5.75;71.97;100664.97;88161;1276;87742;-72
2022/04/11 05:55:39;;;;;;;18.80;13.60;;;;;;;5.92;71.86;100664.10;88167;1276;94133;-65
2022/04/11 05:57:47;;;;;;;17.40;12.90;;;;;;;6.12;71.29;100670.14;88168;1277;78696;-69
2022/04/11 05:59:56;;;;;;;17.00;12.60;;;;;;;5.77;71.26;100668.42;88163;1276;79636;-69
2022/04/11 06:02:09;;;;;;;19.10;12.90;;;;;;;5.53;71.28;100670.02;88155;1276;99161;-69
2022/04/11 06:04:18;;;;;;;21.40;13.40;;;;;;;5.32;71.29;100672.46;88149;1276;88824;-69
2022/04/11 06:06:27;;;;;;;17.80;13.10;;;;;;;5.22;71.30;100675.13;88150;1276;95582;-74
2022/04/11 06:08:36;;;;;;;16.80;11.90;;;;;;;5.19;71.46;100673.33;88129;1276;79373;-69
2022/04/11 06:10:48;;;;;;;17.10;12.50;;;;;;;5.18;71.60;100675.94;88151;1276;80830;-69
2022/04/11 06:12:57;;;;;;;17.90;12.00;;;;;;;5.25;72.06;100675.96;88128;1276;99788;-68
2022/04/11 06:15:08;;;;;;;21.80;12.70;;;;;;;5.42;72.28;100681.22;88131;1276;88900;-69
2022/04/11 06:17:16;;;;;;;15.90;11.30;;;;;;;5.66;72.06;100678.48;88142;1276;94371;-69
2022/04/11 06:19:25;;;;;;;15.30;12.00;;;;;;;5.79;71.99;100678.88;88148;1276;80626;-69
2022/04/11 06:21:35;;;;;;;15.40;12.10;;;;;;;5.97;71.61;100682.39;88154;1276;82786;-72
2022/04/11 06:23:47;;;;;;;18.00;11.70;;;;;;;6.17;71.57;100683.01;88143;1276;97116;-72
2022/04/11 06:26:00;;;;;;;20.60;12.40;;;;;;;6.36;71.81;100686.60;88141;1276;89474;-71
2022/04/11 06:28:10;;;;;;;18.10;12.00;;;;;;;6.74;71.81;100691.18;88134;1277;96155;-70
2022/04/11 06:30:23;;;;;;;16.80;12.10;;;;;;;7.11;71.60;100687.27;88154;1276;77703;-71
2022/04/11 06:32:35;;;;;;;15.90;11.70;;;;;;;7.36;70.95;100683.67;88191;1276;83164;-74
2022/04/11 06:34:44;;;;;;;16.90;13.00;;;;;;;7.33;70.66;100682.77;88155;1276;100391;-72
2022/04/11 06:36:54;;;;;;;18.80;12.30;;;;;;;7.29;70.24;100685.58;88189;1276;87703;-73
2022/04/11 06:39:02;;;;;;;14.70;11.70;;;;;;;7.17;70.10;100687.90;88177;1276;92145;-72
2022/04/11 06:41:12;;;;;;;15.40;11.40;;;;;;;7.10;70.17;100690.93;88142;1276;78808;-70
2022/04/11 06:43:25;;;;;;;17.00;12.70;;;;;;;7.17;69.89;100694.86;88154;1276;80573;-69
2022/04/11 06:45:35;;;;;;;16.60;12.10;;;;;;;7.18;69.79;100694.99;88075;1278;99491;-71
2022/04/11 06:47:47;;;;;;;15.20;11.40;;;;;;;7.14;69.88;100698.77;88171;1277;85660;-72
2022/04/11 06:49:58;;;;;;;16.50;11.50;;;;;;;7.21;69.98;100697.50;88124;1276;95519;-72
2022/04/11 06:52:09;;;;;;;13.70;10.80;;;;;;;7.12;69.65;100700.55;88060;1277;77841;-72
2022/04/11 06:54:21;;;;;;;13.30;10.70;;;;;;;7.18;69.75;100702.43;88188;1276;80242;-72
2022/04/11 06:56:30;;;;;;;14.00;11.00;;;;;;;7.31;69.81;100702.15;88145;1276;99205;-72
2022/04/11 06:58:39;;;;;;;14.50;10.60;;;;;;;7.55;69.65;100697.08;88180;1276;88323;-72
2022/04/11 07:00:52;;;;;;;12.60;10.80;;;;;;;7.71;69.42;100694.81;88056;1277;93490;-72
2022/04/11 07:03:01;;;;;;;13.90;10.50;;;;;;;7.87;68.98;100700.02;88163;1276;77634;-71
2022/04/11 07:05:12;;;;;;;16.70;10.90;;;;;;;7.89;68.59;100702.58;88159;1276;82733;-72
2022/04/11 07:07:21;;;;;;;12.40;10.00;;;;;;;7.76;68.87;100705.98;88166;1276;99574;-71
2022/04/11 07:09:31;;;;;;;14.30;10.50;;;;;;;7.75;68.71;100706.71;88166;1276;88177;-71
2022/04/11 07:11:40;;;;;;;15.40;10.20;;;;;;;7.72;68.26;100707.24;88143;1276;93091;-70
2022/04/11 07:13:49;;;;;;;13.60;10.80;;;;;;;7.67;67.88;100707.42;88154;1276;77182;-71
2022/04/11 07:15:58;;;;;;;14.70;11.80;;;;;;;7.58;67.61;100709.48;88181;1276;83570;-73
2022/04/11 07:18:07;;;;;;;14.00;11.60;;;;;;;7.49;67.50;100709.75;88173;1276;98896;-71
2022/04/11 07:20:16;;;;;;;17.90;12.30;;;;;;;7.51;67.51;100712.13;88180;1276;89954;-74
2022/04/11 07:22:26;;;;;;;15.40;11.50;;;;;;;7.57;67.60;100712.95;88183;1276;96220;-69
2022/04/11 07:24:39;;;;;;;14.60;11.70;;;;;;;7.65;67.26;100708.52;88163;1276;79396;-71
2022/04/11 07:26:48;;;;;;;16.50;12.30;;;;;;;7.73;67.05;100715.52;88159;1276;82315;-70
2022/04/11 07:28:57;;;;;;;17.10;12.20;;;;;;;7.88;66.85;100717.38;88173;1275;99433;-72
2022/04/11 07:31:06;;;;;;;12.90;11.00;;;;;;;8.03;67.03;100718.82;88197;1276;87875;-72
2022/04/11 07:33:15;;;;;;;15.20;11.60;;;;;;;8.33;67.00;100717.95;88140;1276;95488;-72
2022/04/11 07:35:27;;;;;;;14.70;11.80;;;;;;;8.64;66.73;100715.61;88165;1276;78491;-71
2022/04/11 07:37:36;;;;;;;14.10;11.60;;;;;;;8.97;66.23;100716.52;88175;1276;81190;-73
2022/04/11 07:39:45;;;;;;;16.80;12.10;;;;;;;9.50;66.32;100713.80;88129;1276;99997;-73
2022/04/11 07:41:54;;;;;;;14.90;11.40;;;;;;;10.48;66.99;100714.10;88179;1276;86771;-69
2022/04/11 07:44:03;;;;;;;15.20;10.80;;;;;;;12.53;66.23;100708.27;88102;1276;95483;-70
2022/04/11 07:46:13;;;;;;;13.50;11.00;;;;;;;13.69;64.77;100707.70;88169;1276;79287;-72
2022/04/11 07:48:22;;;;;;;12.30;9.80;;;;;;;15.28;63.54;100705.73;88175;1276;80152;-71
2022/04/11 07:50:31;;;;;;;14.50;9.50;;;;;;;16.44;61.92;100698.20;88173;1276;97793;-73
2022/04/11 07:52:44;;;;;;;11.40;8.50;;;;;;;17.21;60.83;100701.84;88154;1276;89343;-76
2022/04/11 07:54:55;;;;;;;12.50;9.00;;;;;;;18.10;59.83;100694.56;88134;1276;95334;-70
2022/04/11 07:57:09;;;;;;;11.90;8.70;;;;;;;19.12;57.86;100697.16;88131;1276;78176;-74
2022/04/11 07:59:18;;;;;;;11.90;7.90;;;;;;;20.22;56.40;100691.35;88156;1276;81038;-74
2022/04/11 08:01:28;;;;;;;12.60;8.50;;;;;;;20.39;53.67;100697.17;88145;1277;97590;-75
2022/04/11 08:03:37;;;;;;;10.80;7.80;;;;;;;19.13;52.34;100709.27;88127;1276;89475;-74
2022/04/11 08:05:47;;;;;;;11.60;8.00;;;;;;;17.80;51.28;100706.77;88118;1276;95011;-69
2022/04/11 08:07:56;;;;;;;10.30;8.50;;;;;;;16.53;51.29;100708.33;88136;1276;78158;-68
2022/04/11 08:10:07;;;;;;;12.50;9.10;;;;;;;15.42;51.04;100717.83;88084;1277;79779;-68
2022/04/11 08:12:18;;;;;;;14.10;9.50;;;;;;;14.39;50.48;100719.66;88143;1276;100431;-73
2022/04/11 08:14:27;;;;;;;12.80;10.30;;;;;;;13.66;50.13;100720.95;88134;1276;86855;-75
2022/04/11 08:16:36;;;;;;;12.70;9.70;;;;;;;13.34;51.25;100727.58;88064;1277;93714;-74
2022/04/11 08:18:45;;;;;;;14.60;11.30;;;;;;;13.95;51.83;100725.11;88126;1276;78966;-73
2022/04/11 08:20:54;;;;;;;13.30;11.60;;;;;;;15.53;51.96;100726.19;88096;1276;83129;-74
2022/04/11 08:23:04;;;;;;;13.40;11.90;;;;;;;16.39;49.86;100724.27;88120;1276;99256;-73
2022/04/11 08:25:14;;;;;;;13.80;11.50;;;;;;;16.86;48.79;100725.16;88142;1276;86676;-74
2022/04/11 08:27:23;;;;;;;13.70;12.00;;;;;;;16.99;48.53;100725.98;88156;1276;94568;-69
2022/04/11 08:29:33;;;;;;;13.80;11.90;;;;;;;17.30;47.85;100730.36;88127;1276;77341;-69
2022/04/11 08:31:42;;;;;;;13.90;12.50;;;;;;;18.03;45.38;100723.32;88039;1277;82913;-72
2022/04/11 08:33:51;;;;;;;13.50;11.90;;;;;;;18.80;46.39;100723.61;88136;1276;99196;-73
2022/04/11 08:36:00;;;;;;;14.20;11.40;;;;;;;19.35;45.72;100726.56;88055;1277;87701;-73
2022/04/11 08:38:09;;;;;;;12.40;11.20;;;;;;;20.10;45.38;100721.44;88137;1276;94974;-72
2022/04/11 08:40:20;;;;;;;11.80;10.60;;;;;;;20.73;44.43;100715.56;88141;1276;78255;-72
2022/04/11 08:42:30;;;;;;;10.10;8.90;;;;;;;21.22;42.98;100719.88;88140;1276;81454;-70
2022/04/11 08:44:39;;;;;;;11.40;8.20;;;;;;;21.57;41.86;100723.16;88119;1276;99867;-71
2022/04/11 08:46:50;;;;;;;10.90;7.50;;;;;;;21.63;41.54;100719.70;88146;1276;88298;-73
2022/04/11 08:49:00;;;;;;;8.20;6.70;;;;;;;20.37;40.77;100727.80;88100;1276;96172;-70
2022/04/11 08:51:09;;;;;;;9.10;6.80;;;;;;;20.33;41.54;100726.96;88146;1276;78588;-71
2022/04/11 08:53:23;;;;;;;10.10;7.60;;;;;;;20.95;41.49;100722.83;88168;1276;79574;-73
2022/04/11 08:55:35;;;;;;;10.90;7.50;;;;;;;20.89;39.92;100723.27;88143;1276;97714;-73
2022/04/11 08:57:44;;;;;;;9.30;6.60;;;;;;;19.58;37.49;100728.06;88144;1276;88127;-72
2022/04/11 08:59:56;;;;;;;7.70;6.00;;;;;;;18.06;38.70;100728.17;88157;1276;95010;-70
2022/04/11 09:02:11;;;;;;;8.40;5.90;;;;;;;16.86;39.55;100728.63;88139;1276;79386;-71
2022/04/11 09:04:20;;;;;;;8.00;6.30;;;;;;;16.02;40.97;100731.31;88136;1276;82385;-71
2022/04/11 09:06:35;;;;;;;7.40;5.70;;;;;;;15.70;41.61;100732.58;88175;1276;100202;-77
2022/04/11 09:09:00;;;;;;;8.20;5.70;;;;;;;15.47;42.11;100731.02;88131;1276;87816;-74
2022/04/11 09:11:13;;;;;;;9.20;6.60;;;;;;;14.99;42.42;100737.98;88092;1276;94234;-71
2022/04/11 09:13:23;;;;;;;7.70;5.20;;;;;;;14.52;42.56;100739.86;88158;1276;81528;-73
2022/04/11 09:20:10;;;;;;;8.90;6.20;;;;;;;13.57;44.13;100742.84;88839;1265;97547;-68
2022/04/11 09:22:32;;;;;;;9.90;6.00;;;;;;;13.88;44.45;100740.73;88169;1274;91568;-69
2022/04/11 09:24:43;;;;;;;7.80;6.30;;;;;;;14.24;44.34;100737.89;88191;1272;95742;-73
2022/04/11 09:26:55;;;;;;;8.00;6.10;;;;;;;14.27;44.17;100740.02;88172;1274;79048;-72
2022/04/11 09:29:08;;;;;;;8.00;5.40;;;;;;;14.27;43.38;100740.67;88202;1274;83307;-70
2022/04/11 09:31:25;;;;;;;5.60;4.40;;;;;;;14.86;44.50;100736.56;88202;1274;100293;-74
2022/04/11 09:33:44;;;;;;;6.80;5.00;;;;;;;15.37;44.16;100728.69;88233;1274;89465;-72
2022/04/11 09:35:54;;;;;;;7.80;4.90;;;;;;;14.87;43.94;100730.03;88189;1274;94454;-71
2022/04/11 09:38:15;;;;;;;6.00;4.70;;;;;;;14.91;44.08;100735.48;88223;1274;78736;-71
2022/04/11 09:40:26;;;;;;;6.30;4.30;;;;;;;15.12;44.14;100734.51;88202;1273;83435;-73
2022/04/11 09:42:41;;;;;;;6.20;4.50;;;;;;;15.20;43.36;100729.52;88225;1273;99209;-73
2022/04/11 09:45:27;;;;;;;10.20;5.00;;;;;;;14.96;42.39;100733.36;88171;1276;87808;-72
2022/04/11 09:48:08;;;;;;;7.30;4.50;;;;;;;14.78;42.69;100736.17;88252;1274;93091;-71
2022/04/11 09:50:34;;;;;;;6.90;5.00;;;;;;;14.18;41.96;100732.48;88262;1273;79775;-70
2022/04/11 09:53:27;;;;;;;7.00;4.80;;;;;;;13.78;43.07;100734.24;88268;1273;81730;-74
2022/04/11 09:56:00;;;;;;;7.80;5.20;;;;;;;13.60;43.72;100731.77;88169;1276;99737;-71
2022/04/11 10:02:34;;;;;;;8.70;5.30;;;;;;;14.17;43.95;100720.45;88245;1276;93697;-71
2022/04/11 10:05:25;;;;;;;6.60;4.60;;;;;;;14.42;44.06;100718.78;89519;1264;79139;-70
2022/04/11 10:08:38;;;;;;;10.30;5.00;;;;;;;14.45;43.80;100719.15;89641;1276;82344;-70
2022/04/11 10:11:12;;;;;;;;;;;;;;;14.63;43.95;100719.52;89635;1276;97398;-74
2022/04/11 10:13:45;;;;;;;8.10;5.30;;;;;;;14.86;44.19;100716.84;89644;1276;87120;-76
2022/04/11 10:16:09;;;;;;;8.80;5.00;;;;;;;15.05;44.26;100714.28;89573;1277;93103;-76